sensor_id;sensor_type;location;lat;lon;timestamp;pressure;altitude;pressure_sealevel;temperature;humidity
68654;BME280;55636;51.108;13.622;2022-09-24T00:00:49;100224.88;;;10.00;55.33
68654;BME280;55636;51.108;13.622;2022-09-24T00:01:55;100220.47;;;9.99;55.31
68654;BME280;55636;51.108;13.622;2022-09-24T00:02:57;100224.06;;;9.99;55.27
68654;BME280;55636;51.108;13.622;2022-09-24T00:04:03;100222.13;;;10.00;55.40
68654;BME280;55636;51.108;13.622;2022-09-24T00:05:06;100224.06;;;9.99;55.34
68654;BME280;55636;51.108;13.622;2022-09-24T00:06:08;100218.56;;;9.99;55.23
68654;BME280;55636;51.108;13.622;2022-09-24T00:07:10;100217.69;;;9.99;55.33
68654;BME280;55636;51.108;13.622;2022-09-24T00:08:14;100219.38;;;10.00;55.35
68654;BME280;55636;51.108;13.622;2022-09-24T00:09:20;100209.41;;;9.99;55.32
68654;BME280;55636;51.108;13.622;2022-09-24T00:10:23;100216.63;;;10.00;55.30
68654;BME280;55636;51.108;13.622;2022-09-24T00:11:26;100213.03;;;9.99;55.29
68654;BME280;55636;51.108;13.622;2022-09-24T00:12:29;100207.75;;;9.98;55.37
68654;BME280;55636;51.108;13.622;2022-09-24T00:13:33;100212.19;;;9.99;55.42
68654;BME280;55636;51.108;13.622;2022-09-24T00:14:35;100222.41;;;9.98;55.40
68654;BME280;55636;51.108;13.622;2022-09-24T00:15:43;100218.56;;;9.99;55.50
68654;BME280;55636;51.108;13.622;2022-09-24T00:16:46;100209.69;;;9.97;55.30
68654;BME280;55636;51.108;13.622;2022-09-24T00:17:48;100207.75;;;9.98;55.38
68654;BME280;55636;51.108;13.622;2022-09-24T00:18:50;100213.25;;;9.98;55.18
68654;BME280;55636;51.108;13.622;2022-09-24T00:19:53;100203.91;;;9.99;55.15
68654;BME280;55636;51.108;13.622;2022-09-24T00:20:55;100206.94;;;9.97;55.21
68654;BME280;55636;51.108;13.622;2022-09-24T00:21:57;100204.16;;;9.97;55.23
68654;BME280;55636;51.108;13.622;2022-09-24T00:23:00;100203.09;;;9.98;55.39
68654;BME280;55636;51.108;13.622;2022-09-24T00:24:14;100195.63;;;9.99;55.42
68654;BME280;55636;51.108;13.622;2022-09-24T00:25:41;100200.59;;;9.97;55.31
68654;BME280;55636;51.108;13.622;2022-09-24T00:27:04;100196.16;;;9.96;55.31
68654;BME280;55636;51.108;13.622;2022-09-24T00:28:07;100194.22;;;9.96;55.30
68654;BME280;55636;51.108;13.622;2022-09-24T00:29:13;100194.22;;;9.96;55.29
68654;BME280;55636;51.108;13.622;2022-09-24T00:30:15;100196.41;;;9.94;55.30
68654;BME280;55636;51.108;13.622;2022-09-24T00:31:17;100198.91;;;9.96;55.23
68654;BME280;55636;51.108;13.622;2022-09-24T00:32:20;100196.16;;;9.96;55.10
68654;BME280;55636;51.108;13.622;2022-09-24T00:33:25;100196.97;;;9.96;55.44
68654;BME280;55636;51.108;13.622;2022-09-24T00:34:29;100185.38;;;9.94;55.38
68654;BME280;55636;51.108;13.622;2022-09-24T00:35:32;100196.41;;;9.94;55.30
68654;BME280;55636;51.108;13.622;2022-09-24T00:36:34;100194.47;;;9.95;55.24
68654;BME280;55636;51.108;13.622;2022-09-24T00:37:36;100188.16;;;9.94;55.44
68654;BME280;55636;51.108;13.622;2022-09-24T00:38:38;100201.69;;;9.96;55.44
68654;BME280;55636;51.108;13.622;2022-09-24T00:39:41;100184.53;;;9.94;55.36
68654;BME280;55636;51.108;13.622;2022-09-24T00:40:43;100183.72;;;9.93;55.24
68654;BME280;55636;51.108;13.622;2022-09-24T00:41:46;100183.97;;;9.92;55.54
68654;BME280;55636;51.108;13.622;2022-09-24T00:42:50;100177.34;;;9.93;55.36
68654;BME280;55636;51.108;13.622;2022-09-24T00:43:52;100185.63;;;9.93;55.24
68654;BME280;55636;51.108;13.622;2022-09-24T00:44:56;100183.97;;;9.92;55.50
68654;BME280;55636;51.108;13.622;2022-09-24T00:46:13;100178.47;;;9.92;55.38
68654;BME280;55636;51.108;13.622;2022-09-24T00:48:28;100177.59;;;9.91;55.49
68654;BME280;55636;51.108;13.622;2022-09-24T00:49:31;100174.03;;;9.91;55.43
68654;BME280;55636;51.108;13.622;2022-09-24T00:50:36;100167.91;;;9.88;55.33
68654;BME280;55636;51.108;13.622;2022-09-24T00:51:40;100176.19;;;9.88;55.37
68654;BME280;55636;51.108;13.622;2022-09-24T00:52:47;100171.81;;;9.87;55.39
68654;BME280;55636;51.108;13.622;2022-09-24T00:53:54;100168.19;;;9.87;55.40
68654;BME280;55636;51.108;13.622;2022-09-24T00:55:06;100170.94;;;9.87;55.38
68654;BME280;55636;51.108;13.622;2022-09-24T00:56:11;100165.44;;;9.87;55.52
68654;BME280;55636;51.108;13.622;2022-09-24T00:57:16;100162.13;;;9.85;55.55
68654;BME280;55636;51.108;13.622;2022-09-24T00:58:19;100168.47;;;9.85;55.46
68654;BME280;55636;51.108;13.622;2022-09-24T00:59:24;100170.41;;;9.85;55.42
68654;BME280;55636;51.108;13.622;2022-09-24T01:00:26;100164.88;;;9.85;55.51
68654;BME280;55636;51.108;13.622;2022-09-24T01:01:28;100165.13;;;9.83;55.68
68654;BME280;55636;51.108;13.622;2022-09-24T01:02:31;100163.47;;;9.82;55.50
68654;BME280;55636;51.108;13.622;2022-09-24T01:03:40;100163.47;;;9.82;55.51
68654;BME280;55636;51.108;13.622;2022-09-24T01:04:43;100156.28;;;9.81;55.71
68654;BME280;55636;51.108;13.622;2022-09-24T01:05:45;100156.28;;;9.81;55.63
68654;BME280;55636;51.108;13.622;2022-09-24T01:06:48;100156.28;;;9.81;55.72
68654;BME280;55636;51.108;13.622;2022-09-24T01:07:51;100158.47;;;9.79;55.65
68654;BME280;55636;51.108;13.622;2022-09-24T01:08:54;100164.81;;;9.80;55.76
68654;BME280;55636;51.108;13.622;2022-09-24T01:09:57;100154.28;;;9.77;55.69
68654;BME280;55636;51.108;13.622;2022-09-24T01:11:06;100158.72;;;9.78;55.65
68654;BME280;55636;51.108;13.622;2022-09-24T01:12:26;100159.81;;;9.77;55.73
68654;BME280;55636;51.108;13.622;2022-09-24T01:13:54;100158.13;;;9.76;55.67
68654;BME280;55636;51.108;13.622;2022-09-24T01:16:51;100153.16;;;9.73;55.41
68654;BME280;55636;51.108;13.622;2022-09-24T01:18:09;100157.59;;;9.74;55.71
68654;BME280;55636;51.108;13.622;2022-09-24T01:19:37;100150.66;;;9.71;55.63
68654;BME280;55636;51.108;13.622;2022-09-24T01:24:26;100157.53;;;9.68;55.57
68654;BME280;55636;51.108;13.622;2022-09-24T01:30:02;100154.97;;;9.62;55.74
68654;BME280;55636;51.108;13.622;2022-09-24T01:31:12;100153.31;;;9.61;55.89
68654;BME280;55636;51.108;13.622;2022-09-24T01:32:41;100155.25;;;9.60;56.01
68654;BME280;55636;51.108;13.622;2022-09-24T01:33:46;100149.97;;;9.59;55.88
68654;BME280;55636;51.108;13.622;2022-09-24T01:34:59;100151.06;;;9.58;56.03
68654;BME280;55636;51.108;13.622;2022-09-24T01:36:05;100152.97;;;9.57;56.17
68654;BME280;55636;51.108;13.622;2022-09-24T01:37:11;100146.66;;;9.57;56.23
68654;BME280;55636;51.108;13.622;2022-09-24T01:38:25;100147.72;;;9.56;56.27
68654;BME280;55636;51.108;13.622;2022-09-24T01:39:28;100146.91;;;9.55;56.24
68654;BME280;55636;51.108;13.622;2022-09-24T01:40:33;100143.31;;;9.54;56.21
68654;BME280;55636;51.108;13.622;2022-09-24T01:41:37;100138.88;;;9.53;56.20
68654;BME280;55636;51.108;13.622;2022-09-24T01:42:42;100143.56;;;9.53;56.37
68654;BME280;55636;51.108;13.622;2022-09-24T01:43:46;100145.50;;;9.52;56.44
68654;BME280;55636;51.108;13.622;2022-09-24T01:44:49;100141.06;;;9.51;56.34
68654;BME280;55636;51.108;13.622;2022-09-24T01:45:56;100145.75;;;9.51;56.52
68654;BME280;55636;51.108;13.622;2022-09-24T01:47:00;100142.75;;;9.52;56.50
68654;BME280;55636;51.108;13.622;2022-09-24T01:48:03;100133.06;;;9.50;56.37
68654;BME280;55636;51.108;13.622;2022-09-24T01:49:06;100139.41;;;9.50;56.73
68654;BME280;55636;51.108;13.622;2022-09-24T01:50:12;100133.31;;;9.48;56.44
68654;BME280;55636;51.108;13.622;2022-09-24T01:51:22;100132.22;;;9.49;56.48
68654;BME280;55636;51.108;13.622;2022-09-24T01:52:33;100133.31;;;9.48;56.68
68654;BME280;55636;51.108;13.622;2022-09-24T01:53:47;100134.41;;;9.47;56.57
68654;BME280;55636;51.108;13.622;2022-09-24T01:54:51;100138.00;;;9.48;56.57
68654;BME280;55636;51.108;13.622;2022-09-24T01:56:02;100132.75;;;9.46;56.52
68654;BME280;55636;51.108;13.622;2022-09-24T01:57:29;100135.50;;;9.46;56.54
68654;BME280;55636;51.108;13.622;2022-09-24T02:00:25;100133.81;;;9.45;56.44
68654;BME280;55636;51.108;13.622;2022-09-24T02:01:33;100131.06;;;9.45;56.50
68654;BME280;55636;51.108;13.622;2022-09-24T02:02:49;100132.16;;;9.44;56.68
68654;BME280;55636;51.108;13.622;2022-09-24T02:04:00;100134.09;;;9.44;56.58
68654;BME280;55636;51.108;13.622;2022-09-24T02:06:39;100134.09;;;9.44;56.64
68654;BME280;55636;51.108;13.622;2022-09-24T02:07:57;100125.22;;;9.42;56.83
68654;BME280;55636;51.108;13.622;2022-09-24T02:09:03;100129.66;;;9.43;56.60
68654;BME280;55636;51.108;13.622;2022-09-24T02:10:16;100131.59;;;9.42;56.78
68654;BME280;55636;51.108;13.622;2022-09-24T02:11:21;100132.69;;;9.41;56.75
68654;BME280;55636;51.108;13.622;2022-09-24T02:12:33;100139.28;;;9.40;56.76
68654;BME280;55636;51.108;13.622;2022-09-24T02:13:46;100131.00;;;9.40;56.73
68654;BME280;55636;51.108;13.622;2022-09-24T02:14:53;100132.09;;;9.39;56.77
68654;BME280;55636;51.108;13.622;2022-09-24T02:16:01;100127.44;;;9.40;56.80
68654;BME280;55636;51.108;13.622;2022-09-24T02:17:08;100132.09;;;9.39;56.85
68654;BME280;55636;51.108;13.622;2022-09-24T02:18:12;100128.78;;;9.37;56.78
68654;BME280;55636;51.108;13.622;2022-09-24T02:19:24;100132.38;;;9.37;56.91
68654;BME280;55636;51.108;13.622;2022-09-24T02:20:29;100129.59;;;9.37;56.84
68654;BME280;55636;51.108;13.622;2022-09-24T02:21:33;100139.81;;;9.37;56.95
68654;BME280;55636;51.108;13.622;2022-09-24T02:22:38;100137.31;;;9.35;56.90
68654;BME280;55636;51.108;13.622;2022-09-24T02:23:44;100134.56;;;9.35;57.00
68654;BME280;55636;51.108;13.622;2022-09-24T02:24:50;100133.72;;;9.35;56.89
68654;BME280;55636;51.108;13.622;2022-09-24T02:25:57;100129.28;;;9.34;56.98
68654;BME280;55636;51.108;13.622;2022-09-24T02:27:00;100128.19;;;9.35;56.92
68654;BME280;55636;51.108;13.622;2022-09-24T02:28:03;100121.88;;;9.34;57.07
68654;BME280;55636;51.108;13.622;2022-09-24T02:29:05;100129.28;;;9.34;56.85
68654;BME280;55636;51.108;13.622;2022-09-24T02:30:08;100128.19;;;9.35;56.91
68654;BME280;55636;51.108;13.622;2022-09-24T02:31:32;100129.28;;;9.34;56.97
68654;BME280;55636;51.108;13.622;2022-09-24T02:32:38;100123.75;;;9.34;57.03
68654;BME280;55636;51.108;13.622;2022-09-24T02:33:44;100124.88;;;9.33;56.96
68654;BME280;55636;51.108;13.622;2022-09-24T02:35:08;100128.47;;;9.33;56.98
68654;BME280;55636;51.108;13.622;2022-09-24T02:36:11;100133.16;;;9.33;57.13
68654;BME280;55636;51.108;13.622;2022-09-24T02:37:15;100126.78;;;9.32;56.97
68654;BME280;55636;51.108;13.622;2022-09-24T02:38:19;100120.72;;;9.30;57.09
68654;BME280;55636;51.108;13.622;2022-09-24T02:39:21;100131.47;;;9.32;56.96
68654;BME280;55636;51.108;13.622;2022-09-24T02:40:24;100118.78;;;9.31;56.92
68654;BME280;55636;51.108;13.622;2022-09-24T02:41:26;100117.69;;;9.32;57.04
68654;BME280;55636;51.108;13.622;2022-09-24T02:42:29;100121.53;;;9.31;56.93
68654;BME280;55636;51.108;13.622;2022-09-24T02:43:32;100123.47;;;9.30;57.06
68654;BME280;55636;51.108;13.622;2022-09-24T02:44:35;100120.72;;;9.30;57.07
68654;BME280;55636;51.108;13.622;2022-09-24T02:45:38;100121.53;;;9.31;57.10
68654;BME280;55636;51.108;13.622;2022-09-24T02:46:40;100117.09;;;9.30;57.18
68654;BME280;55636;51.108;13.622;2022-09-24T02:47:42;100117.09;;;9.30;57.16
68654;BME280;55636;51.108;13.622;2022-09-24T02:48:45;100114.63;;;9.28;57.22
68654;BME280;55636;51.108;13.622;2022-09-24T02:49:48;100111.88;;;9.28;57.16
68654;BME280;55636;51.108;13.622;2022-09-24T02:50:50;100106.63;;;9.27;57.13
68654;BME280;55636;51.108;13.622;2022-09-24T02:51:55;100117.63;;;9.27;57.12
68654;BME280;55636;51.108;13.622;2022-09-24T02:52:58;100115.16;;;9.25;57.25
68654;BME280;55636;51.108;13.622;2022-09-24T02:54:00;100108.78;;;9.25;57.24
68654;BME280;55636;51.108;13.622;2022-09-24T02:55:03;100118.72;;;9.26;57.27
68654;BME280;55636;51.108;13.622;2022-09-24T02:56:06;100121.47;;;9.26;57.10
68654;BME280;55636;51.108;13.622;2022-09-24T02:57:09;100117.06;;;9.25;57.35
68654;BME280;55636;51.108;13.622;2022-09-24T02:58:11;100107.97;;;9.24;57.16
68654;BME280;55636;51.108;13.622;2022-09-24T02:59:13;100116.22;;;9.24;57.28
68654;BME280;55636;51.108;13.622;2022-09-24T03:00:16;100114.56;;;9.23;57.24
68654;BME280;55636;51.108;13.622;2022-09-24T03:01:19;100110.97;;;9.23;57.20
68654;BME280;55636;51.108;13.622;2022-09-24T03:02:21;100106.56;;;9.21;57.22
68654;BME280;55636;51.108;13.622;2022-09-24T03:03:25;100102.13;;;9.20;57.24
68654;BME280;55636;51.108;13.622;2022-09-24T03:04:27;100107.63;;;9.20;57.41
68654;BME280;55636;51.108;13.622;2022-09-24T03:05:31;100109.56;;;9.20;57.42
68654;BME280;55636;51.108;13.622;2022-09-24T03:06:34;100103.22;;;9.19;57.41
68654;BME280;55636;51.108;13.622;2022-09-24T03:07:36;100105.13;;;9.19;57.51
68654;BME280;55636;51.108;13.622;2022-09-24T03:08:42;100100.44;;;9.19;57.36
68654;BME280;55636;51.108;13.622;2022-09-24T03:09:45;100098.81;;;9.18;57.29
68654;BME280;55636;51.108;13.622;2022-09-24T03:10:47;100093.28;;;9.18;57.42
68654;BME280;55636;51.108;13.622;2022-09-24T03:11:52;100090.53;;;9.18;57.35
68654;BME280;55636;51.108;13.622;2022-09-24T03:12:54;100094.94;;;9.19;57.33
68654;BME280;55636;51.108;13.622;2022-09-24T03:13:58;100097.69;;;9.19;57.44
68654;BME280;55636;51.108;13.622;2022-09-24T03:15:00;100094.94;;;9.19;57.27
68654;BME280;55636;51.108;13.622;2022-09-24T03:16:04;100099.63;;;9.19;57.39
68654;BME280;55636;51.108;13.622;2022-09-24T03:17:07;100097.69;;;9.19;57.38
68654;BME280;55636;51.108;13.622;2022-09-24T03:18:09;100104.31;;;9.18;57.40
68654;BME280;55636;51.108;13.622;2022-09-24T03:19:11;100091.38;;;9.19;57.34
68654;BME280;55636;51.108;13.622;2022-09-24T03:20:14;100098.81;;;9.18;57.48
68654;BME280;55636;51.108;13.622;2022-09-24T03:21:18;100092.19;;;9.19;57.39
68654;BME280;55636;51.108;13.622;2022-09-24T03:22:21;100095.78;;;9.20;57.39
68654;BME280;55636;51.108;13.622;2022-09-24T03:23:23;100090.53;;;9.18;57.37
68654;BME280;55636;51.108;13.622;2022-09-24T03:24:25;100093.28;;;9.18;57.39
68654;BME280;55636;51.108;13.622;2022-09-24T03:25:28;100090.53;;;9.18;57.28
68654;BME280;55636;51.108;13.622;2022-09-24T03:26:32;100092.44;;;9.18;57.34
68654;BME280;55636;51.108;13.622;2022-09-24T03:27:35;100087.78;;;9.18;57.40
68654;BME280;55636;51.108;13.622;2022-09-24T03:28:37;100091.38;;;9.19;57.32
68654;BME280;55636;51.108;13.622;2022-09-24T03:29:39;100091.63;;;9.17;57.43
68654;BME280;55636;51.108;13.622;2022-09-24T03:31:03;100086.94;;;9.18;57.12
68654;BME280;55636;51.108;13.622;2022-09-24T03:32:06;100092.44;;;9.18;57.48
68654;BME280;55636;51.108;13.622;2022-09-24T03:33:08;100083.34;;;9.17;57.40
68654;BME280;55636;51.108;13.622;2022-09-24T03:34:10;100087.78;;;9.18;57.22
68654;BME280;55636;51.108;13.622;2022-09-24T03:35:13;100087.78;;;9.18;57.32
68654;BME280;55636;51.108;13.622;2022-09-24T03:36:18;100088.59;;;9.19;57.27
68654;BME280;55636;51.108;13.622;2022-09-24T03:37:24;100093.03;;;9.20;57.12
68654;BME280;55636;51.108;13.622;2022-09-24T03:38:27;100089.44;;;9.19;57.26
68654;BME280;55636;51.108;13.622;2022-09-24T03:39:30;100093.28;;;9.18;57.23
68654;BME280;55636;51.108;13.622;2022-09-24T03:40:32;100096.06;;;9.18;57.23
68654;BME280;55636;51.108;13.622;2022-09-24T03:41:34;100085.84;;;9.19;57.15
68654;BME280;55636;51.108;13.622;2022-09-24T03:42:37;100092.19;;;9.19;57.13
68654;BME280;55636;51.108;13.622;2022-09-24T03:43:39;100085.03;;;9.18;57.26
68654;BME280;55636;51.108;13.622;2022-09-24T03:44:42;100088.88;;;9.17;57.25
68654;BME280;55636;51.108;13.622;2022-09-24T03:45:45;100088.59;;;9.19;57.35
68654;BME280;55636;51.108;13.622;2022-09-24T03:46:47;100078.66;;;9.18;57.07
68654;BME280;55636;51.108;13.622;2022-09-24T03:47:51;100086.94;;;9.18;57.09
68654;BME280;55636;51.108;13.622;2022-09-24T03:48:53;100087.19;;;9.16;57.14
68654;BME280;55636;51.108;13.622;2022-09-24T03:49:56;100088.88;;;9.17;57.14
68654;BME280;55636;51.108;13.622;2022-09-24T03:51:06;100084.44;;;9.16;57.20
68654;BME280;55636;51.108;13.622;2022-09-24T03:52:11;100080.00;;;9.15;56.99
68654;BME280;55636;51.108;13.622;2022-09-24T03:53:14;100078.09;;;9.16;57.14
68654;BME280;55636;51.108;13.622;2022-09-24T03:54:17;100080.88;;;9.16;57.05
68654;BME280;55636;51.108;13.622;2022-09-24T03:55:19;100079.19;;;9.15;57.02
68654;BME280;55636;51.108;13.622;2022-09-24T03:56:21;100072.00;;;9.14;56.95
68654;BME280;55636;51.108;13.622;2022-09-24T03:57:24;100072.00;;;9.14;57.06
68654;BME280;55636;51.108;13.622;2022-09-24T03:58:26;100081.09;;;9.14;57.18
68654;BME280;55636;51.108;13.622;2022-09-24T03:59:28;100079.47;;;9.13;57.27
68654;BME280;55636;51.108;13.622;2022-09-24T04:00:31;100073.94;;;9.13;57.08
68654;BME280;55636;51.108;13.622;2022-09-24T04:01:38;100073.09;;;9.13;57.16
68654;BME280;55636;51.108;13.622;2022-09-24T04:02:41;100071.41;;;9.12;57.15
68654;BME280;55636;51.108;13.622;2022-09-24T04:03:43;100071.41;;;9.12;57.21
68654;BME280;55636;51.108;13.622;2022-09-24T04:04:46;100068.66;;;9.12;57.17
68654;BME280;55636;51.108;13.622;2022-09-24T04:05:49;100069.78;;;9.11;57.18
68654;BME280;55636;51.108;13.622;2022-09-24T04:06:54;100071.69;;;9.10;57.16
68654;BME280;55636;51.108;13.622;2022-09-24T04:07:58;100067.25;;;9.09;57.09
68654;BME280;55636;51.108;13.622;2022-09-24T04:09:00;100066.44;;;9.09;57.23
68654;BME280;55636;51.108;13.622;2022-09-24T04:10:03;100062.00;;;9.08;57.14
68654;BME280;55636;51.108;13.622;2022-09-24T04:11:08;100068.38;;;9.08;57.14
68654;BME280;55636;51.108;13.622;2022-09-24T04:12:10;100068.38;;;9.08;57.20
68654;BME280;55636;51.108;13.622;2022-09-24T04:13:13;100062.00;;;9.08;57.23
68654;BME280;55636;51.108;13.622;2022-09-24T04:14:16;100065.03;;;9.06;57.17
68654;BME280;55636;51.108;13.622;2022-09-24T04:15:18;100066.97;;;9.06;57.13
68654;BME280;55636;51.108;13.622;2022-09-24T04:16:20;100063.34;;;9.05;57.16
68654;BME280;55636;51.108;13.622;2022-09-24T04:17:23;100066.13;;;9.05;57.24
68654;BME280;55636;51.108;13.622;2022-09-24T04:18:28;100067.47;;;9.02;57.16
68654;BME280;55636;51.108;13.622;2022-09-24T04:19:31;100070.47;;;9.01;57.26
68654;BME280;55636;51.108;13.622;2022-09-24T04:20:33;100067.72;;;9.01;57.13
68654;BME280;55636;51.108;13.622;2022-09-24T04:21:35;100062.47;;;8.99;57.28
68654;BME280;55636;51.108;13.622;2022-09-24T04:22:38;100069.88;;;8.99;57.36
68654;BME280;55636;51.108;13.622;2022-09-24T04:23:40;100072.66;;;8.99;57.34
68654;BME280;55636;51.108;13.622;2022-09-24T04:24:43;100075.66;;;8.97;57.43
68654;BME280;55636;51.108;13.622;2022-09-24T04:25:45;100066.84;;;8.95;57.44
68654;BME280;55636;51.108;13.622;2022-09-24T04:26:47;100066.00;;;8.95;57.52
68654;BME280;55636;51.108;13.622;2022-09-24T04:27:53;100063.22;;;8.95;57.48
68654;BME280;55636;51.108;13.622;2022-09-24T04:28:56;100061.59;;;8.94;57.18
68654;BME280;55636;51.108;13.622;2022-09-24T04:30:00;100065.44;;;8.93;57.40
68654;BME280;55636;51.108;13.622;2022-09-24T04:31:03;100070.09;;;8.92;57.37
68654;BME280;55636;51.108;13.622;2022-09-24T04:32:05;100064.84;;;8.91;57.41
68654;BME280;55636;51.108;13.622;2022-09-24T04:33:07;100059.34;;;8.91;57.54
68654;BME280;55636;51.108;13.622;2022-09-24T04:34:10;100060.19;;;8.91;57.29
68654;BME280;55636;51.108;13.622;2022-09-24T04:35:12;100063.16;;;8.90;57.35
68654;BME280;55636;51.108;13.622;2022-09-24T04:36:15;100060.41;;;8.90;57.46
68654;BME280;55636;51.108;13.622;2022-09-24T04:37:17;100060.41;;;8.90;57.43
68654;BME280;55636;51.108;13.622;2022-09-24T04:38:19;100065.09;;;8.89;57.60
68654;BME280;55636;51.108;13.622;2022-09-24T04:39:22;100061.53;;;8.88;57.41
68654;BME280;55636;51.108;13.622;2022-09-24T04:40:27;100064.28;;;8.88;57.52
68654;BME280;55636;51.108;13.622;2022-09-24T04:41:31;100065.38;;;8.87;57.40
68654;BME280;55636;51.108;13.622;2022-09-24T04:42:33;100065.38;;;8.87;57.48
68654;BME280;55636;51.108;13.622;2022-09-24T04:43:35;100062.03;;;8.85;57.50
68654;BME280;55636;51.108;13.622;2022-09-24T04:44:38;100066.72;;;8.85;57.53
68654;BME280;55636;51.108;13.622;2022-09-24T04:45:42;100067.53;;;8.85;57.56
68654;BME280;55636;51.108;13.622;2022-09-24T04:46:45;100063.97;;;8.85;57.43
68654;BME280;55636;51.108;13.622;2022-09-24T04:47:48;100063.38;;;8.83;57.55
68654;BME280;55636;51.108;13.622;2022-09-24T04:48:58;100063.38;;;8.83;57.58
68654;BME280;55636;51.108;13.622;2022-09-24T04:50:01;100065.56;;;8.81;57.65
68654;BME280;55636;51.108;13.622;2022-09-24T04:51:07;100062.81;;;8.81;57.50
68654;BME280;55636;51.108;13.622;2022-09-24T04:52:10;100061.69;;;8.82;57.48
68654;BME280;55636;51.108;13.622;2022-09-24T04:53:12;100059.47;;;8.79;57.64
68654;BME280;55636;51.108;13.622;2022-09-24T04:54:15;100061.13;;;8.80;57.86
68654;BME280;55636;51.108;13.622;2022-09-24T04:55:19;100057.53;;;8.79;57.77
68654;BME280;55636;51.108;13.622;2022-09-24T04:56:22;100055.88;;;8.78;57.74
68654;BME280;55636;51.108;13.622;2022-09-24T04:57:24;100058.88;;;8.77;57.80
68654;BME280;55636;51.108;13.622;2022-09-24T04:58:27;100058.88;;;8.77;57.88
68654;BME280;55636;51.108;13.622;2022-09-24T04:59:29;100060.00;;;8.76;57.69
68654;BME280;55636;51.108;13.622;2022-09-24T05:00:31;100058.88;;;8.77;57.64
68654;BME280;55636;51.108;13.622;2022-09-24T05:01:34;100050.88;;;8.75;57.72
68654;BME280;55636;51.108;13.622;2022-09-24T05:02:37;100058.88;;;8.77;57.55
68654;BME280;55636;51.108;13.622;2022-09-24T05:03:39;100055.53;;;8.75;57.89
68654;BME280;55636;51.108;13.622;2022-09-24T05:04:42;100053.84;;;8.74;57.85
68654;BME280;55636;51.108;13.622;2022-09-24T05:05:45;100056.88;;;8.72;57.95
68654;BME280;55636;51.108;13.622;2022-09-24T05:06:47;100053.03;;;8.73;57.90
68654;BME280;55636;51.108;13.622;2022-09-24T05:07:49;100053.31;;;8.71;57.94
68654;BME280;55636;51.108;13.622;2022-09-24T05:08:52;100045.03;;;8.71;57.93
68654;BME280;55636;51.108;13.622;2022-09-24T05:09:54;100055.78;;;8.73;57.94
68654;BME280;55636;51.108;13.622;2022-09-24T05:10:56;100059.63;;;8.72;57.94
68654;BME280;55636;51.108;13.622;2022-09-24T05:11:58;100048.88;;;8.70;57.87
68654;BME280;55636;51.108;13.622;2022-09-24T05:13:00;100059.63;;;8.72;58.02
68654;BME280;55636;51.108;13.622;2022-09-24T05:14:03;100047.78;;;8.71;58.13
68654;BME280;55636;51.108;13.622;2022-09-24T05:15:07;100053.84;;;8.74;58.10
68654;BME280;55636;51.108;13.622;2022-09-24T05:16:09;100057.69;;;8.72;58.08
68654;BME280;55636;51.108;13.622;2022-09-24T05:17:11;100053.03;;;8.73;58.10
68654;BME280;55636;51.108;13.622;2022-09-24T05:18:13;100055.78;;;8.73;58.06
68654;BME280;55636;51.108;13.622;2022-09-24T05:19:16;100051.38;;;8.72;58.10
68654;BME280;55636;51.108;13.622;2022-09-24T05:20:19;100051.38;;;8.72;58.10
68654;BME280;55636;51.108;13.622;2022-09-24T05:21:21;100061.31;;;8.73;58.05
68654;BME280;55636;51.108;13.622;2022-09-24T05:22:24;100053.03;;;8.73;58.21
68654;BME280;55636;51.108;13.622;2022-09-24T05:23:28;100054.69;;;8.74;58.04
68654;BME280;55636;51.108;13.622;2022-09-24T05:24:30;100054.94;;;8.72;58.06
68654;BME280;55636;51.108;13.622;2022-09-24T05:25:32;100051.94;;;8.74;57.98
68654;BME280;55636;51.108;13.622;2022-09-24T05:26:35;100060.19;;;8.74;58.00
68654;BME280;55636;51.108;13.622;2022-09-24T05:27:56;100058.53;;;8.73;58.09
68654;BME280;55636;51.108;13.622;2022-09-24T05:28:58;100066.56;;;8.75;58.14
68654;BME280;55636;51.108;13.622;2022-09-24T05:30:00;100061.88;;;8.75;58.14
68654;BME280;55636;51.108;13.622;2022-09-24T05:31:03;100061.88;;;8.75;58.16
68654;BME280;55636;51.108;13.622;2022-09-24T05:32:07;100066.31;;;8.76;58.18
68654;BME280;55636;51.108;13.622;2022-09-24T05:33:10;100059.13;;;8.75;58.20
68654;BME280;55636;51.108;13.622;2022-09-24T05:34:12;100061.63;;;8.77;58.25
68654;BME280;55636;51.108;13.622;2022-09-24T05:35:15;100071.56;;;8.78;58.20
68654;BME280;55636;51.108;13.622;2022-09-24T05:36:17;100066.06;;;8.78;58.22
68654;BME280;55636;51.108;13.622;2022-09-24T05:37:20;100072.41;;;8.78;58.35
68654;BME280;55636;51.108;13.622;2022-09-24T05:38:23;100068.31;;;8.81;58.28
68654;BME280;55636;51.108;13.622;2022-09-24T05:39:25;100074.66;;;8.81;58.33
68654;BME280;55636;51.108;13.622;2022-09-24T05:40:34;100071.91;;;8.81;58.21
68654;BME280;55636;51.108;13.622;2022-09-24T05:41:49;100070.81;;;8.82;58.21
68654;BME280;55636;51.108;13.622;2022-09-24T05:42:51;100080.75;;;8.83;58.35
68654;BME280;55636;51.108;13.622;2022-09-24T05:44:00;100071.38;;;8.84;58.36
68654;BME280;55636;51.108;13.622;2022-09-24T05:45:03;100078.56;;;8.85;58.12
68654;BME280;55636;51.108;13.622;2022-09-24T05:46:05;100080.47;;;8.85;58.27
68654;BME280;55636;51.108;13.622;2022-09-24T05:47:08;100084.91;;;8.86;58.15
68654;BME280;55636;51.108;13.622;2022-09-24T05:48:11;100087.41;;;8.87;58.06
68654;BME280;55636;51.108;13.622;2022-09-24T05:49:13;100085.22;;;8.90;58.13
68654;BME280;55636;51.108;13.622;2022-09-24T05:50:15;100085.47;;;8.88;58.08
68654;BME280;55636;51.108;13.622;2022-09-24T05:51:17;100089.91;;;8.89;57.96
68654;BME280;55636;51.108;13.622;2022-09-24T05:52:20;100083.31;;;8.90;58.06
68654;BME280;55636;51.108;13.622;2022-09-24T05:53:22;100090.72;;;8.90;58.11